createdAt,value
2016-07-29T00:00:02.265Z,0
2016-07-29T00:01:02.070Z,0
2016-07-29T00:02:02.331Z,0
2016-07-29T00:03:02.093Z,0
2016-07-29T00:04:02.087Z,0
2016-07-29T00:05:02.099Z,0
2016-07-29T00:06:02.339Z,0
2016-07-29T00:07:02.238Z,0
2016-07-29T00:08:02.132Z,0
2016-07-29T00:09:02.133Z,0
2016-07-29T00:10:02.263Z,0
2016-07-29T00:11:02.260Z,0
2016-07-29T00:12:02.151Z,0
2016-07-29T00:13:02.162Z,0
2016-07-29T00:14:02.193Z,0
2016-07-29T00:15:02.340Z,0
2016-07-29T00:16:02.199Z,0
2016-07-29T00:17:02.574Z,0
2016-07-29T00:18:02.231Z,0
2016-07-29T00:19:02.239Z,0
2016-07-29T00:20:02.291Z,0
2016-07-29T00:21:02.226Z,0
2016-07-29T00:22:02.236Z,0
2016-07-29T00:23:02.396Z,0
2016-07-29T00:24:02.232Z,0
2016-07-29T00:25:02.255Z,0
2016-07-29T00:26:02.298Z,0
2016-07-29T00:27:02.493Z,0
2016-07-29T00:28:02.318Z,0
2016-07-29T00:29:02.298Z,0
2016-07-29T00:30:02.299Z,0
2016-07-29T00:31:02.576Z,0
2016-07-29T00:32:02.314Z,0
2016-07-29T00:33:02.312Z,0
2016-07-29T00:34:02.367Z,0
2016-07-29T00:35:02.365Z,0
2016-07-29T00:36:02.378Z,0
2016-07-29T00:37:02.610Z,0
2016-07-29T00:38:02.370Z,0
2016-07-29T00:39:02.434Z,0
2016-07-29T00:40:02.707Z,0
2016-07-29T00:41:02.405Z,0
2016-07-29T00:42:02.391Z,0
2016-07-29T00:43:02.613Z,0
2016-07-29T00:44:02.441Z,0
2016-07-29T00:45:02.465Z,0
2016-07-29T00:46:02.618Z,0
2016-07-29T00:48:02.471Z,0
2016-07-29T00:49:02.634Z,0
2016-07-29T00:50:02.499Z,0
2016-07-29T00:51:02.502Z,0
2016-07-29T00:52:02.492Z,0
2016-07-29T00:53:02.496Z,0
2016-07-29T00:54:02.531Z,0
2016-07-29T00:55:02.711Z,0
2016-07-29T00:56:02.523Z,0
2016-07-29T00:57:03.229Z,0
2016-07-29T00:58:02.515Z,0
2016-07-29T00:59:02.576Z,0
2016-07-29T01:00:02.553Z,0
2016-07-29T01:01:02.586Z,0
2016-07-29T01:03:02.628Z,0
2016-07-29T01:04:02.570Z,0
2016-07-29T01:05:02.591Z,0
2016-07-29T01:06:02.637Z,0
2016-07-29T01:07:02.623Z,0
2016-07-29T01:08:02.691Z,0
2016-07-29T01:09:02.630Z,0
2016-07-29T01:10:02.676Z,0
2016-07-29T01:11:02.646Z,0
2016-07-29T01:12:02.641Z,0
2016-07-29T01:13:02.666Z,0
2016-07-29T01:14:02.678Z,0
2016-07-29T01:15:02.739Z,0
2016-07-29T01:16:02.702Z,0
2016-07-29T01:18:02.729Z,0
2016-07-29T01:19:02.742Z,0
2016-07-29T01:20:02.725Z,0
2016-07-29T01:21:02.742Z,0
2016-07-29T01:22:02.754Z,0
2016-07-29T01:23:02.777Z,0
2016-07-29T01:24:02.766Z,0
2016-07-29T01:25:02.790Z,0
2016-07-29T01:26:02.781Z,0
2016-07-29T01:27:02.771Z,0
2016-07-29T01:28:02.806Z,0
2016-07-29T01:29:02.830Z,0
2016-07-29T01:30:02.861Z,0
2016-07-29T01:31:02.812Z,0
2016-07-29T01:32:02.822Z,0
2016-07-29T01:33:02.812Z,0
2016-07-29T01:34:02.853Z,0
2016-07-29T01:35:02.860Z,0
2016-07-29T01:36:02.894Z,0
2016-07-29T01:37:02.866Z,0
2016-07-29T01:38:02.902Z,0
2016-07-29T01:39:02.965Z,0
2016-07-29T01:40:02.895Z,0
2016-07-29T01:41:02.910Z,0
2016-07-29T01:42:02.919Z,0
2016-07-29T01:43:02.941Z,0
2016-07-29T01:44:02.930Z,0
2016-07-29T01:45:02.935Z,0
2016-07-29T01:46:02.953Z,0
2016-07-29T01:47:02.969Z,0
2016-07-29T01:48:02.940Z,0
2016-07-29T01:49:02.968Z,0
2016-07-29T01:50:03.001Z,0
2016-07-29T01:51:03.027Z,0
2016-07-29T01:52:02.983Z,0
2016-07-29T01:53:03.035Z,0
2016-07-29T01:54:03.015Z,0
2016-07-29T01:55:03.052Z,0
2016-07-29T01:56:03.046Z,0
2016-07-29T01:57:03.028Z,0
2016-07-29T01:58:03.049Z,0
2016-07-29T01:59:03.088Z,0
2016-07-29T02:00:03.035Z,0
2016-07-29T02:01:03.082Z,0
2016-07-29T02:02:03.066Z,0
2016-07-29T02:03:03.116Z,0
2016-07-29T02:04:03.113Z,0
2016-07-29T02:05:03.116Z,0
2016-07-29T02:06:03.115Z,0
2016-07-29T02:07:03.125Z,0
2016-07-29T02:08:03.178Z,0
2016-07-29T02:09:03.847Z,0
2016-07-29T02:10:03.156Z,0
2016-07-29T02:11:03.185Z,0
2016-07-29T02:12:03.162Z,0
2016-07-29T02:13:03.195Z,0
2016-07-29T02:14:03.171Z,0
2016-07-29T02:15:03.203Z,0
2016-07-29T02:16:03.203Z,0
2016-07-29T02:17:03.232Z,0
2016-07-29T02:18:04.243Z,0
2016-07-29T02:19:03.249Z,0
2016-07-29T02:20:03.247Z,0
2016-07-29T02:21:03.245Z,0
2016-07-29T02:22:03.291Z,0
2016-07-29T02:23:03.263Z,0
2016-07-29T02:24:03.289Z,0
2016-07-29T02:25:03.287Z,0
2016-07-29T02:26:03.288Z,0
2016-07-29T02:27:03.288Z,0
2016-07-29T02:28:03.332Z,0
2016-07-29T02:29:03.316Z,0
2016-07-29T02:30:03.305Z,0
2016-07-29T02:31:03.324Z,0
2016-07-29T02:32:03.368Z,0
2016-07-29T02:33:03.389Z,0
2016-07-29T02:34:03.351Z,0
2016-07-29T02:35:03.353Z,0
2016-07-29T02:36:03.364Z,0
2016-07-29T02:37:03.388Z,0
2016-07-29T02:38:03.407Z,0
2016-07-29T02:39:03.454Z,0
2016-07-29T02:40:03.415Z,0
2016-07-29T02:41:03.428Z,0
2016-07-29T02:42:03.406Z,0
2016-07-29T02:43:03.446Z,0
2016-07-29T02:44:03.425Z,0
2016-07-29T02:45:03.454Z,0
2016-07-29T02:46:03.492Z,0
2016-07-29T02:47:03.472Z,0
2016-07-29T02:48:03.465Z,0
2016-07-29T02:49:03.494Z,0
2016-07-29T02:50:03.502Z,0
2016-07-29T02:51:03.493Z,0
2016-07-29T02:52:03.509Z,0
2016-07-29T02:53:03.533Z,0
2016-07-29T02:54:03.531Z,0
2016-07-29T02:55:03.542Z,0
2016-07-29T02:56:03.519Z,0
2016-07-29T02:57:03.557Z,0
2016-07-29T02:58:03.852Z,0
2016-07-29T02:59:03.811Z,0
2016-07-29T03:00:03.605Z,0
2016-07-29T03:01:03.557Z,0
2016-07-29T03:02:03.629Z,0
2016-07-29T03:03:03.608Z,0
2016-07-29T03:04:03.611Z,0
2016-07-29T03:05:03.647Z,0
2016-07-29T03:06:03.850Z,0
2016-07-29T03:07:03.640Z,0
2016-07-29T03:08:03.639Z,0
2016-07-29T03:09:03.666Z,0
2016-07-29T03:10:03.659Z,0
2016-07-29T03:11:03.690Z,0
2016-07-29T03:12:03.662Z,0
2016-07-29T03:13:04.369Z,0
2016-07-29T03:14:03.691Z,0
2016-07-29T03:15:04.016Z,0
2016-07-29T03:16:03.734Z,0
2016-07-29T03:17:03.725Z,0
2016-07-29T03:18:03.911Z,0
2016-07-29T03:19:03.743Z,0
2016-07-29T03:20:03.735Z,0
2016-07-29T03:21:03.748Z,0
2016-07-29T03:22:03.916Z,0
2016-07-29T03:23:03.801Z,0
2016-07-29T03:24:03.776Z,0
2016-07-29T03:25:03.771Z,0
2016-07-29T03:26:04.111Z,0
2016-07-29T03:27:03.943Z,0
2016-07-29T03:28:03.800Z,0
2016-07-29T03:29:03.851Z,0
2016-07-29T03:30:03.859Z,0
2016-07-29T03:31:03.837Z,0
2016-07-29T03:32:03.875Z,0
2016-07-29T03:33:03.854Z,0
2016-07-29T03:34:03.918Z,0
2016-07-29T03:35:03.852Z,0
2016-07-29T03:36:04.132Z,0
2016-07-29T03:37:04.056Z,0
2016-07-29T03:38:03.918Z,0
2016-07-29T03:39:03.918Z,0
2016-07-29T03:40:04.255Z,0
2016-07-29T03:41:03.929Z,0
2016-07-29T03:42:03.962Z,0
2016-07-29T03:43:03.945Z,0
2016-07-29T03:44:03.939Z,0
2016-07-29T03:45:03.988Z,0
2016-07-29T03:46:03.957Z,0
2016-07-29T03:47:03.990Z,0
2016-07-29T03:48:03.970Z,0
2016-07-29T03:49:04.028Z,0
2016-07-29T03:50:04.001Z,0
2016-07-29T03:51:03.985Z,0
2016-07-29T03:52:04.030Z,0
2016-07-29T03:53:04.022Z,0
2016-07-29T03:54:04.391Z,0
2016-07-29T03:55:04.038Z,0
2016-07-29T03:56:04.074Z,0
2016-07-29T03:57:04.326Z,0
2016-07-29T03:58:04.064Z,0
2016-07-29T03:59:04.101Z,0
2016-07-29T04:00:04.378Z,0
2016-07-29T04:01:04.106Z,0
2016-07-29T04:02:04.408Z,0
2016-07-29T04:03:04.120Z,0
2016-07-29T04:04:04.114Z,0
2016-07-29T04:05:04.119Z,0
2016-07-29T04:06:04.141Z,0
2016-07-29T04:07:04.143Z,0
2016-07-29T04:08:04.432Z,0
2016-07-29T04:09:04.328Z,0
2016-07-29T04:10:04.179Z,0
2016-07-29T04:11:04.385Z,0
2016-07-29T04:12:04.180Z,0
2016-07-29T04:13:04.273Z,0
2016-07-29T04:14:04.213Z,0
2016-07-29T04:15:04.469Z,0
2016-07-29T04:16:04.226Z,0
2016-07-29T04:17:04.482Z,0
2016-07-29T04:18:04.236Z,0
2016-07-29T04:19:04.935Z,0
2016-07-29T04:20:04.234Z,0
2016-07-29T04:21:04.250Z,0
2016-07-29T04:22:04.968Z,0
2016-07-29T04:23:04.527Z,0
2016-07-29T04:24:04.294Z,0
2016-07-29T04:25:04.304Z,0
2016-07-29T04:26:04.440Z,0
2016-07-29T04:27:04.344Z,0
2016-07-29T04:28:04.312Z,0
2016-07-29T04:29:04.314Z,0
2016-07-29T04:30:04.382Z,0
2016-07-29T04:31:04.359Z,0
2016-07-29T04:32:04.521Z,0
2016-07-29T04:33:04.703Z,0
2016-07-29T04:34:04.370Z,0
2016-07-29T04:35:04.683Z,0
2016-07-29T04:36:04.388Z,5
2016-07-29T04:37:04.400Z,5
2016-07-29T04:38:04.595Z,5
2016-07-29T04:39:04.464Z,5
2016-07-29T04:40:04.623Z,5
2016-07-29T04:41:04.425Z,5
2016-07-29T04:42:04.458Z,5
2016-07-29T04:43:04.435Z,5
2016-07-29T04:44:04.790Z,5
2016-07-29T04:45:04.506Z,5
2016-07-29T04:46:04.473Z,5
2016-07-29T04:47:04.474Z,5
2016-07-29T04:49:04.497Z,10
2016-07-29T04:50:04.523Z,5
2016-07-29T04:51:04.738Z,5
2016-07-29T04:52:04.533Z,5
2016-07-29T04:53:04.792Z,5
2016-07-29T04:54:04.556Z,5
2016-07-29T04:55:04.543Z,5
2016-07-29T04:56:04.561Z,5
2016-07-29T04:57:04.541Z,5
2016-07-29T04:58:04.562Z,5
2016-07-29T04:59:04.585Z,5
2016-07-29T05:00:04.730Z,10
2016-07-29T05:01:04.633Z,5
2016-07-29T05:02:04.620Z,10
2016-07-29T05:04:04.638Z,5
2016-07-29T05:05:04.625Z,5
2016-07-29T05:06:04.676Z,5
2016-07-29T05:07:04.661Z,10
2016-07-29T05:08:04.672Z,10
2016-07-29T05:09:04.694Z,10
2016-07-29T05:10:04.658Z,5
2016-07-29T05:11:04.711Z,5
2016-07-29T05:12:04.724Z,5
2016-07-29T05:13:04.699Z,10
2016-07-29T05:14:04.722Z,10
2016-07-29T05:15:04.722Z,10
2016-07-29T05:16:04.759Z,15
2016-07-29T05:17:04.746Z,15
2016-07-29T05:18:04.772Z,15
2016-07-29T05:19:04.766Z,15
2016-07-29T05:20:04.796Z,10
2016-07-29T05:21:04.779Z,10
2016-07-29T05:22:04.767Z,10
2016-07-29T05:23:04.800Z,10
2016-07-29T05:24:04.785Z,10
2016-07-29T05:25:04.820Z,10
2016-07-29T05:26:04.827Z,10
2016-07-29T05:27:04.843Z,10
2016-07-29T05:28:04.823Z,10
2016-07-29T05:29:04.837Z,10
2016-07-29T05:30:04.834Z,10
2016-07-29T05:31:04.873Z,10
2016-07-29T05:32:04.914Z,10
2016-07-29T05:33:04.866Z,10
2016-07-29T05:34:04.898Z,10
2016-07-29T05:35:04.891Z,10
2016-07-29T05:36:04.881Z,10
2016-07-29T05:37:04.905Z,10
2016-07-29T05:38:04.933Z,10
2016-07-29T05:39:04.920Z,10
2016-07-29T05:40:04.935Z,10
2016-07-29T05:41:04.945Z,10
2016-07-29T05:42:04.945Z,15
2016-07-29T05:43:04.970Z,10
2016-07-29T05:44:04.997Z,10
2016-07-29T05:45:04.974Z,15
2016-07-29T05:46:05.122Z,15
2016-07-29T05:47:04.987Z,15
2016-07-29T05:48:05.012Z,15
2016-07-29T05:49:05.011Z,15
2016-07-29T05:50:05.018Z,15
2016-07-29T05:51:05.041Z,15
2016-07-29T05:52:05.038Z,15
2016-07-29T05:53:05.067Z,20
2016-07-29T05:54:05.052Z,15
2016-07-29T05:55:05.057Z,15
2016-07-29T05:56:05.110Z,15
2016-07-29T05:57:05.077Z,15
2016-07-29T05:58:05.127Z,15
2016-07-29T05:59:05.094Z,15
2016-07-29T06:00:05.107Z,15
2016-07-29T06:01:05.142Z,15
2016-07-29T06:02:05.111Z,15
2016-07-29T06:03:05.132Z,15
2016-07-29T06:04:05.140Z,15
2016-07-29T06:05:05.145Z,20
2016-07-29T06:06:05.157Z,15
2016-07-29T06:07:05.164Z,15
2016-07-29T06:08:05.178Z,15
2016-07-29T06:09:05.207Z,15
2016-07-29T06:10:05.195Z,15
2016-07-29T06:11:05.210Z,15
2016-07-29T06:12:05.188Z,10
2016-07-29T06:13:05.233Z,10
2016-07-29T06:14:05.237Z,10
2016-07-29T06:15:05.921Z,10
2016-07-29T06:16:05.261Z,10
2016-07-29T06:17:05.240Z,10
2016-07-29T06:18:05.248Z,10
2016-07-29T06:19:05.279Z,10
2016-07-29T06:20:05.260Z,10
2016-07-29T06:21:05.264Z,10
2016-07-29T06:22:05.296Z,10
2016-07-29T06:23:05.280Z,10
2016-07-29T06:24:05.331Z,15
2016-07-29T06:25:05.307Z,15
2016-07-29T06:26:06.021Z,15
2016-07-29T06:27:05.350Z,15
2016-07-29T06:28:05.324Z,15
2016-07-29T06:29:05.354Z,15
2016-07-29T06:30:05.330Z,15
2016-07-29T06:31:05.381Z,15
2016-07-29T06:32:05.388Z,20
2016-07-29T06:33:05.384Z,20
2016-07-29T06:34:05.419Z,20
2016-07-29T06:35:05.427Z,20
2016-07-29T06:36:05.410Z,20
2016-07-29T06:37:05.434Z,25
2016-07-29T06:38:05.432Z,25
2016-07-29T06:39:05.453Z,25
2016-07-29T06:40:05.599Z,20
2016-07-29T06:41:05.452Z,20
2016-07-29T06:42:05.477Z,25
2016-07-29T06:43:05.466Z,30
2016-07-29T06:44:05.490Z,25
2016-07-29T06:45:05.498Z,25
2016-07-29T06:46:05.479Z,25
2016-07-29T06:47:05.514Z,25
2016-07-29T06:48:05.527Z,25
2016-07-29T06:49:05.519Z,25
2016-07-29T06:50:05.533Z,25
2016-07-29T06:51:05.520Z,25
2016-07-29T06:52:05.546Z,25
2016-07-29T06:53:05.539Z,25
2016-07-29T06:54:05.559Z,25
2016-07-29T06:55:05.559Z,25
2016-07-29T06:56:06.275Z,25
2016-07-29T06:57:05.567Z,25
2016-07-29T06:58:05.587Z,20
2016-07-29T06:59:05.587Z,20
2016-07-29T07:00:05.596Z,20
2016-07-29T07:01:05.629Z,20
2016-07-29T07:02:05.621Z,20
2016-07-29T07:03:05.619Z,20
2016-07-29T07:04:05.636Z,20
2016-07-29T07:05:05.597Z,20
2016-07-29T07:06:06.575Z,20
2016-07-29T07:07:05.623Z,20
2016-07-29T07:08:05.619Z,20
2016-07-29T07:09:05.658Z,15
2016-07-29T07:10:05.639Z,15
2016-07-29T07:11:05.682Z,15
2016-07-29T07:12:05.672Z,15
2016-07-29T07:13:05.665Z,15
2016-07-29T07:14:05.704Z,15
2016-07-29T07:15:05.696Z,15
2016-07-29T07:16:05.731Z,15
2016-07-29T07:17:05.740Z,15
2016-07-29T07:18:05.728Z,20
2016-07-29T07:19:05.740Z,20
2016-07-29T07:20:05.740Z,20
2016-07-29T07:21:05.726Z,20
2016-07-29T07:22:05.757Z,20
2016-07-29T07:23:06.657Z,25
2016-07-29T07:24:05.745Z,20
2016-07-29T07:25:05.775Z,20
2016-07-29T07:26:05.840Z,25
2016-07-29T07:27:05.780Z,25
2016-07-29T07:28:05.786Z,25
2016-07-29T07:29:05.805Z,25
2016-07-29T07:30:06.004Z,25
2016-07-29T07:31:05.952Z,25
2016-07-29T07:32:05.814Z,25
2016-07-29T07:33:06.029Z,25
2016-07-29T07:34:05.828Z,25
2016-07-29T07:35:05.815Z,25
2016-07-29T07:36:05.812Z,25
2016-07-29T07:37:05.853Z,25
2016-07-29T07:38:06.226Z,25
2016-07-29T07:39:05.869Z,25
2016-07-29T07:40:06.312Z,25
2016-07-29T07:41:06.126Z,25
2016-07-29T07:42:05.875Z,30
2016-07-29T07:43:05.894Z,30
2016-07-29T07:44:06.006Z,30
2016-07-29T07:45:05.892Z,30
2016-07-29T07:46:05.891Z,30
2016-07-29T07:47:05.927Z,30
2016-07-29T07:48:05.932Z,30
2016-07-29T07:49:05.955Z,30
2016-07-29T07:50:06.056Z,35
2016-07-29T07:51:06.009Z,35
2016-07-29T07:52:05.992Z,35
2016-07-29T07:53:05.959Z,35
2016-07-29T07:54:05.969Z,30
2016-07-29T07:55:06.025Z,30
2016-07-29T07:56:06.043Z,25
2016-07-29T07:57:05.979Z,25
2016-07-29T07:58:05.991Z,25
2016-07-29T07:59:06.189Z,25
2016-07-29T08:00:06.035Z,25
2016-07-29T08:01:06.051Z,25
2016-07-29T08:02:06.338Z,25
2016-07-29T08:03:06.092Z,25
2016-07-29T08:04:06.054Z,25
2016-07-29T08:05:06.062Z,25
2016-07-29T08:06:06.112Z,25
2016-07-29T08:07:06.331Z,30
2016-07-29T08:08:06.083Z,30
2016-07-29T08:09:06.292Z,25
2016-07-29T08:10:06.098Z,25
2016-07-29T08:11:06.098Z,20
2016-07-29T08:12:06.096Z,15
2016-07-29T08:13:06.419Z,15
2016-07-29T08:14:06.152Z,15
2016-07-29T08:15:06.125Z,20
2016-07-29T08:16:06.125Z,25
2016-07-29T08:17:21.054Z,30
2016-07-29T08:18:06.182Z,35
2016-07-29T08:19:06.181Z,40
2016-07-29T08:20:06.178Z,60
2016-07-29T08:21:06.174Z,55
2016-07-29T08:22:06.188Z,50
2016-07-29T08:23:06.212Z,45
2016-07-29T08:24:06.216Z,50
2016-07-29T08:25:06.469Z,45
2016-07-29T08:26:06.234Z,50
2016-07-29T08:27:06.594Z,55
2016-07-29T08:28:06.255Z,50
2016-07-29T08:29:06.245Z,50
2016-07-29T08:30:06.523Z,50
2016-07-29T08:31:06.327Z,50
2016-07-29T08:32:06.285Z,45
2016-07-29T08:33:06.319Z,45
2016-07-29T08:34:06.622Z,45
2016-07-29T08:35:06.334Z,50
2016-07-29T08:36:06.305Z,50
2016-07-29T08:37:06.319Z,50
2016-07-29T08:38:06.341Z,50
2016-07-29T08:39:06.335Z,50
2016-07-29T08:40:06.675Z,45
2016-07-29T08:41:06.509Z,45
2016-07-29T08:42:06.363Z,45
2016-07-29T08:43:06.411Z,45
2016-07-29T08:44:06.618Z,40
2016-07-29T08:45:06.450Z,45
2016-07-29T08:46:06.407Z,45
2016-07-29T08:47:07.086Z,45
2016-07-29T08:48:06.752Z,45
2016-07-29T08:49:06.468Z,40
2016-07-29T08:50:06.447Z,40
2016-07-29T08:51:06.467Z,40
2016-07-29T08:52:06.480Z,35
2016-07-29T08:53:06.659Z,35
2016-07-29T08:54:06.471Z,30
2016-07-29T08:55:06.467Z,30
2016-07-29T08:56:06.541Z,30
2016-07-29T08:57:06.508Z,30
2016-07-29T08:58:06.523Z,25
2016-07-29T08:59:06.778Z,25
2016-07-29T09:00:06.498Z,25
2016-07-29T09:01:06.739Z,20
2016-07-29T09:02:06.519Z,20
2016-07-29T09:03:06.801Z,20
2016-07-29T09:04:06.563Z,20
2016-07-29T09:05:06.830Z,20
2016-07-29T09:06:06.590Z,20
2016-07-29T09:07:06.563Z,20
2016-07-29T09:08:06.645Z,20
2016-07-29T09:09:06.609Z,20
2016-07-29T09:10:06.612Z,25
2016-07-29T09:11:06.836Z,25
2016-07-29T09:12:06.624Z,25
2016-07-29T09:13:06.621Z,25
2016-07-29T09:14:06.644Z,25
2016-07-29T09:15:06.852Z,25
2016-07-29T09:16:06.656Z,25
2016-07-29T09:17:06.636Z,25
2016-07-29T09:18:06.655Z,30
2016-07-29T09:19:07.419Z,25
2016-07-29T09:20:06.677Z,25
2016-07-29T09:21:06.677Z,25
2016-07-29T09:22:06.827Z,30
2016-07-29T09:23:06.717Z,30
2016-07-29T09:24:06.701Z,30
2016-07-29T09:25:06.706Z,35
2016-07-29T09:26:06.688Z,35
2016-07-29T09:27:06.731Z,35
2016-07-29T09:28:06.737Z,35
2016-07-29T09:29:06.756Z,40
2016-07-29T09:30:06.776Z,40
2016-07-29T09:31:06.770Z,45
2016-07-29T09:32:06.804Z,45
2016-07-29T09:33:06.805Z,45
2016-07-29T09:34:06.798Z,50
2016-07-29T09:35:06.817Z,60
2016-07-29T09:36:06.814Z,80
2016-07-29T09:37:06.967Z,55
2016-07-29T09:38:06.820Z,50
2016-07-29T09:39:06.844Z,45
2016-07-29T09:40:06.883Z,45
2016-07-29T09:41:06.886Z,50
2016-07-29T09:42:06.885Z,50
2016-07-29T09:43:06.886Z,50
2016-07-29T09:44:06.890Z,50
2016-07-29T09:45:06.927Z,50
2016-07-29T09:46:06.912Z,50
2016-07-29T09:47:06.897Z,50
2016-07-29T09:48:06.904Z,50
2016-07-29T09:49:06.944Z,50
2016-07-29T09:50:06.927Z,50
2016-07-29T09:51:06.929Z,50
2016-07-29T09:52:06.985Z,45
2016-07-29T09:53:06.971Z,45
2016-07-29T09:54:06.964Z,45
2016-07-29T09:55:06.955Z,45
2016-07-29T09:56:07.005Z,45
2016-07-29T09:57:06.974Z,45
2016-07-29T09:58:06.984Z,50
2016-07-29T09:59:06.993Z,50
2016-07-29T10:00:07.030Z,50
2016-07-29T10:01:07.020Z,50
2016-07-29T10:02:07.004Z,50
2016-07-29T10:03:07.052Z,50
2016-07-29T10:05:07.047Z,50
2016-07-29T10:06:07.060Z,55
2016-07-29T10:07:07.760Z,50
2016-07-29T10:08:07.070Z,50
2016-07-29T10:09:07.094Z,50
2016-07-29T10:10:07.112Z,50
2016-07-29T10:11:07.092Z,50
2016-07-29T10:12:07.094Z,45
2016-07-29T10:13:07.115Z,45
2016-07-29T10:14:07.112Z,45
2016-07-29T10:15:07.166Z,40
2016-07-29T10:16:07.128Z,40
2016-07-29T10:17:07.144Z,40
2016-07-29T10:18:07.165Z,40
2016-07-29T10:19:07.891Z,40
2016-07-29T10:20:07.165Z,40
2016-07-29T10:21:07.171Z,40
2016-07-29T10:22:07.193Z,35
2016-07-29T10:23:07.205Z,40
2016-07-29T10:24:07.225Z,40
2016-07-29T10:25:07.206Z,45
2016-07-29T10:26:07.229Z,50
2016-07-29T10:27:07.216Z,50
2016-07-29T10:28:07.251Z,50
2016-07-29T10:29:07.216Z,50
2016-07-29T10:30:07.234Z,45
2016-07-29T10:31:07.233Z,50
2016-07-29T10:32:07.250Z,60
2016-07-29T10:33:07.258Z,65
2016-07-29T10:34:07.293Z,70
2016-07-29T10:35:07.308Z,65
2016-07-29T10:36:07.255Z,55
2016-07-29T10:37:07.305Z,60
2016-07-29T10:38:07.320Z,60
2016-07-29T10:39:07.299Z,60
2016-07-29T10:40:07.331Z,60
2016-07-29T10:41:07.358Z,70
2016-07-29T10:42:07.347Z,70
2016-07-29T10:43:07.344Z,75
2016-07-29T10:44:07.347Z,75
2016-07-29T10:45:07.351Z,75
2016-07-29T10:46:07.370Z,75
2016-07-29T10:47:07.363Z,70
2016-07-29T10:48:08.080Z,60
2016-07-29T10:49:07.358Z,60
2016-07-29T10:50:07.379Z,60
2016-07-29T10:51:07.393Z,65
2016-07-29T10:52:07.410Z,60
2016-07-29T10:53:07.413Z,55
2016-07-29T10:54:07.433Z,45
2016-07-29T10:55:07.437Z,40
2016-07-29T10:56:07.427Z,40
2016-07-29T10:57:07.492Z,45
2016-07-29T10:58:07.455Z,45
2016-07-29T10:59:07.439Z,50
2016-07-29T11:00:07.453Z,55
2016-07-29T11:01:07.475Z,55
2016-07-29T11:02:07.495Z,50
2016-07-29T11:03:07.508Z,50
2016-07-29T11:04:07.475Z,50
2016-07-29T11:05:07.500Z,50
2016-07-29T11:06:07.469Z,50
2016-07-29T11:07:07.513Z,50
2016-07-29T11:08:07.505Z,50
2016-07-29T11:09:07.586Z,50
2016-07-29T11:10:07.516Z,55
2016-07-29T11:11:07.557Z,55
2016-07-29T11:12:07.528Z,60
2016-07-29T11:13:07.548Z,60
2016-07-29T11:14:07.575Z,65
2016-07-29T11:15:07.577Z,70
2016-07-29T11:16:07.609Z,70
2016-07-29T11:17:07.594Z,80
2016-07-29T11:18:07.624Z,80
2016-07-29T11:19:07.625Z,85
2016-07-29T11:20:07.610Z,115
2016-07-29T11:21:07.628Z,115
2016-07-29T11:22:07.651Z,105
2016-07-29T11:23:07.651Z,60
2016-07-29T11:24:07.666Z,55
2016-07-29T11:25:07.669Z,55
2016-07-29T11:26:07.664Z,60
2016-07-29T11:27:07.658Z,90
2016-07-29T11:28:07.679Z,80
2016-07-29T11:29:07.698Z,75
2016-07-29T11:30:07.722Z,75
2016-07-29T11:31:07.699Z,80
2016-07-29T11:32:07.696Z,45
2016-07-29T11:33:07.737Z,40
2016-07-29T11:34:07.737Z,40
2016-07-29T11:35:07.756Z,40
2016-07-29T11:36:07.712Z,40
2016-07-29T11:37:07.763Z,45
2016-07-29T11:38:07.764Z,75
2016-07-29T11:39:07.791Z,70
2016-07-29T11:40:07.791Z,75
2016-07-29T11:41:07.843Z,55
2016-07-29T11:42:07.813Z,80
2016-07-29T11:43:07.829Z,80
2016-07-29T11:44:07.814Z,55
2016-07-29T11:45:07.843Z,50
2016-07-29T11:46:07.824Z,55
2016-07-29T11:47:07.856Z,55
2016-07-29T11:48:07.821Z,85
2016-07-29T11:49:07.875Z,85
2016-07-29T11:50:07.865Z,80
2016-07-29T11:51:07.861Z,75
2016-07-29T11:52:07.871Z,75
2016-07-29T11:53:07.872Z,70
2016-07-29T11:54:07.900Z,50
2016-07-29T11:55:07.915Z,45
2016-07-29T11:56:07.901Z,45
2016-07-29T11:57:07.956Z,35
2016-07-29T11:58:07.931Z,65
2016-07-29T11:59:07.945Z,65
2016-07-29T12:00:07.954Z,70
2016-07-29T12:01:07.953Z,70
2016-07-29T12:02:07.952Z,40
2016-07-29T12:03:08.186Z,40
2016-07-29T12:04:07.989Z,70
2016-07-29T12:05:07.986Z,30
2016-07-29T12:06:08.019Z,30
2016-07-29T12:07:07.994Z,60
2016-07-29T12:08:08.038Z,70
2016-07-29T12:09:08.071Z,70
2016-07-29T12:10:08.052Z,75
2016-07-29T12:11:08.297Z,70
2016-07-29T12:12:08.043Z,70
2016-07-29T12:13:08.056Z,40
2016-07-29T12:14:08.340Z,35
2016-07-29T12:15:08.160Z,35
2016-07-29T12:16:08.099Z,40
2016-07-29T12:17:08.080Z,40
2016-07-29T12:18:08.117Z,70
2016-07-29T12:19:08.104Z,75
2016-07-29T12:20:08.212Z,45
2016-07-29T12:21:08.485Z,80
2016-07-29T12:22:08.127Z,85
2016-07-29T12:23:08.302Z,80
2016-07-29T12:24:08.174Z,75
2016-07-29T12:25:08.158Z,70
2016-07-29T12:26:08.367Z,70
2016-07-29T12:27:08.221Z,65
2016-07-29T12:28:08.210Z,65
2016-07-29T12:29:08.229Z,65
2016-07-29T12:30:08.360Z,60
2016-07-29T12:31:08.561Z,30
2016-07-29T12:32:08.226Z,60
2016-07-29T12:33:08.607Z,60
2016-07-29T12:34:08.231Z,60
2016-07-29T12:35:08.472Z,60
2016-07-29T12:36:08.271Z,60
2016-07-29T12:37:08.263Z,60
2016-07-29T12:38:08.387Z,65
2016-07-29T12:39:08.598Z,70
2016-07-29T12:40:08.298Z,70
2016-07-29T12:41:08.351Z,70
2016-07-29T12:42:08.457Z,65
2016-07-29T12:43:08.575Z,65
2016-07-29T12:44:08.353Z,70
2016-07-29T12:45:08.375Z,75
2016-07-29T12:46:08.387Z,75
2016-07-29T12:47:08.371Z,75
2016-07-29T12:48:08.380Z,70
2016-07-29T12:49:08.395Z,70
2016-07-29T12:50:08.391Z,75
2016-07-29T12:51:08.422Z,70
2016-07-29T12:52:08.400Z,70
2016-07-29T12:53:08.715Z,75
2016-07-29T12:54:08.435Z,80
2016-07-29T12:55:08.488Z,80
2016-07-29T12:56:08.451Z,55
2016-07-29T12:57:08.441Z,65
2016-07-29T12:58:08.452Z,55
2016-07-29T12:59:08.464Z,45
2016-07-29T13:00:08.484Z,60
2016-07-29T13:01:08.486Z,40
2016-07-29T13:02:08.465Z,60
2016-07-29T13:03:08.508Z,55
2016-07-29T13:04:08.573Z,55
2016-07-29T13:05:08.521Z,55
2016-07-29T13:06:08.536Z,55
2016-07-29T13:07:08.747Z,45
2016-07-29T13:08:08.549Z,45
2016-07-29T13:09:08.675Z,50
2016-07-29T13:10:08.564Z,50
2016-07-29T13:11:08.571Z,50
2016-07-29T13:12:08.761Z,50
2016-07-29T13:13:08.640Z,55
2016-07-29T13:14:08.609Z,55
2016-07-29T13:15:08.625Z,55
2016-07-29T13:16:08.616Z,55
2016-07-29T13:17:08.638Z,55
2016-07-29T13:18:08.627Z,60
2016-07-29T13:19:08.656Z,60
2016-07-29T13:20:08.928Z,60
2016-07-29T13:21:08.687Z,60
2016-07-29T13:22:09.010Z,65
2016-07-29T13:23:08.665Z,60
2016-07-29T13:24:08.689Z,60
2016-07-29T13:25:08.704Z,60
2016-07-29T13:26:08.710Z,60
2016-07-29T13:27:08.707Z,60
2016-07-29T13:28:08.867Z,55
2016-07-29T13:29:08.729Z,55
2016-07-29T13:30:08.840Z,50
2016-07-29T13:31:08.740Z,50
2016-07-29T13:32:08.955Z,50
2016-07-29T13:33:08.784Z,50
2016-07-29T13:34:08.881Z,50
2016-07-29T13:35:08.954Z,50
2016-07-29T13:36:08.813Z,50
2016-07-29T13:37:08.837Z,45
2016-07-29T13:38:08.854Z,45
2016-07-29T13:39:09.533Z,45
2016-07-29T13:40:08.826Z,45
2016-07-29T13:41:08.923Z,20
2016-07-29T13:42:08.879Z,20
2016-07-29T13:43:08.867Z,30
2016-07-29T13:44:08.905Z,25
2016-07-29T13:45:08.898Z,20
2016-07-29T13:46:08.876Z,20
2016-07-29T13:47:09.039Z,20
2016-07-29T13:48:08.929Z,20
2016-07-29T13:49:08.900Z,50
2016-07-29T13:50:08.927Z,45
2016-07-29T13:51:08.932Z,45
2016-07-29T13:52:08.943Z,45
2016-07-29T13:53:08.937Z,45
2016-07-29T13:54:08.939Z,45
2016-07-29T13:55:08.974Z,45
2016-07-29T13:56:08.979Z,45
2016-07-29T13:57:09.005Z,40
2016-07-29T13:58:08.974Z,45
2016-07-29T13:59:08.998Z,45
2016-07-29T14:00:09.000Z,40
2016-07-29T14:01:09.014Z,45
2016-07-29T14:02:09.021Z,45
2016-07-29T14:03:09.749Z,45
2016-07-29T14:04:09.074Z,35
2016-07-29T14:05:09.050Z,55
2016-07-29T14:06:09.056Z,30
2016-07-29T14:07:09.083Z,45
2016-07-29T14:08:09.097Z,50
2016-07-29T14:09:09.081Z,50
2016-07-29T14:10:09.095Z,25
2016-07-29T14:11:09.103Z,25
2016-07-29T14:12:09.109Z,50
2016-07-29T14:13:09.127Z,55
2016-07-29T14:14:09.114Z,50
2016-07-29T14:15:09.149Z,50
2016-07-29T14:16:09.149Z,45
2016-07-29T14:17:09.157Z,45
2016-07-29T14:18:09.186Z,45
2016-07-29T14:19:09.171Z,45
2016-07-29T14:20:09.163Z,25
2016-07-29T14:21:09.195Z,25
2016-07-29T14:22:09.201Z,25
2016-07-29T14:23:09.195Z,35
2016-07-29T14:24:09.212Z,25
2016-07-29T14:25:09.223Z,25
2016-07-29T14:26:09.238Z,35
2016-07-29T14:27:09.259Z,30
2016-07-29T14:28:09.283Z,30
2016-07-29T14:29:09.268Z,35
2016-07-29T14:30:09.285Z,55
2016-07-29T14:31:09.273Z,50
2016-07-29T14:32:09.282Z,50